createdAt,value
2022-07-29T00:00:50.621Z,89.70
2022-07-29T00:03:36.679Z,89.90
2022-07-29T00:06:26.474Z,90.10
2022-07-29T00:09:12.468Z,90.10
2022-07-29T00:12:01.314Z,90.30
2022-07-29T00:14:47.076Z,90.50
2022-07-29T00:17:35.038Z,90.50
2022-07-29T00:20:21.103Z,90.60
2022-07-29T00:23:07.027Z,90.60
2022-07-29T00:25:53.607Z,90.70
2022-07-29T00:28:39.620Z,90.90
2022-07-29T00:31:25.952Z,91.00
2022-07-29T00:34:30.741Z,91.20
2022-07-29T00:37:16.755Z,91.30
2022-07-29T00:40:02.694Z,91.70
2022-07-29T00:42:50.890Z,91.90
2022-07-29T00:45:37.009Z,92.20
2022-07-29T00:48:22.994Z,92.50
2022-07-29T00:51:09.295Z,92.80
2022-07-29T00:53:55.550Z,93.00
2022-07-29T00:56:41.578Z,93.20
2022-07-29T00:59:34.867Z,93.10
2022-07-29T01:02:21.876Z,93.40
2022-07-29T01:05:08.795Z,93.30
2022-07-29T01:07:55.777Z,93.50
2022-07-29T01:10:43.335Z,93.60
2022-07-29T01:13:32.165Z,93.70
2022-07-29T01:16:33.173Z,93.60
2022-07-29T01:19:50.601Z,93.20
2022-07-29T01:22:37.413Z,93.10
2022-07-29T01:26:01.117Z,93.20
2022-07-29T01:29:07.591Z,93.20
2022-07-29T01:32:27.880Z,93.50
2022-07-29T01:35:32.595Z,93.90
2022-07-29T01:38:24.187Z,94.10
2022-07-29T01:41:15.218Z,94.60
2022-07-29T01:44:11.099Z,94.70
2022-07-29T01:47:01.564Z,94.90
2022-07-29T01:49:52.177Z,95.30
2022-07-29T01:52:44.737Z,95.70
2022-07-29T01:55:35.060Z,96.00
2022-07-29T01:58:22.897Z,96.20
2022-07-29T02:01:12.050Z,96.00
2022-07-29T02:04:00.109Z,96.20
2022-07-29T02:06:49.743Z,96.70
2022-07-29T02:09:37.631Z,96.90
2022-07-29T02:12:26.573Z,96.60
2022-07-29T02:15:13.073Z,97.00
2022-07-29T02:18:10.428Z,97.40
2022-07-29T02:20:59.541Z,97.80
2022-07-29T02:23:51.121Z,97.90
2022-07-29T02:26:40.474Z,98.10
2022-07-29T02:29:28.050Z,98.10
2022-07-29T02:32:16.497Z,98.40
2022-07-29T02:35:03.944Z,98.20
2022-07-29T02:38:10.702Z,97.90
2022-07-29T02:40:58.145Z,98.30
2022-07-29T02:43:47.927Z,98.60
2022-07-29T02:46:36.658Z,98.90
2022-07-29T02:49:27.680Z,99.30
2022-07-29T02:52:26.447Z,99.10
2022-07-29T02:55:20.275Z,99.50
2022-07-29T02:58:31.363Z,99.60
2022-07-29T03:01:24.856Z,99.50
2022-07-29T03:04:14.427Z,99.50
2022-07-29T03:07:02.301Z,99.60
2022-07-29T03:09:49.878Z,99.70
2022-07-29T03:12:36.875Z,99.90
2022-07-29T03:15:24.022Z,99.90
2022-07-29T03:18:11.339Z,99.90
2022-07-29T03:20:57.705Z,99.90
2022-07-29T03:23:46.894Z,99.90
2022-07-29T03:26:32.943Z,99.90
2022-07-29T03:29:19.025Z,99.90
2022-07-29T03:32:07.994Z,99.90
2022-07-29T03:34:55.118Z,99.90
2022-07-29T03:37:41.286Z,99.90
2022-07-29T03:40:47.468Z,99.90
2022-07-29T03:43:38.818Z,99.90
2022-07-29T03:46:38.221Z,99.90
2022-07-29T03:49:25.821Z,99.90
2022-07-29T03:52:12.118Z,99.90
2022-07-29T03:54:58.871Z,99.90
2022-07-29T03:57:46.923Z,99.90
2022-07-29T04:00:34.412Z,99.90
2022-07-29T04:03:20.625Z,99.90
2022-07-29T04:06:08.199Z,99.90
2022-07-29T04:08:54.140Z,99.90
2022-07-29T04:12:03.903Z,99.90
2022-07-29T04:14:48.463Z,99.90
2022-07-29T04:17:34.377Z,99.90
2022-07-29T04:20:20.335Z,99.90
2022-07-29T04:23:06.299Z,99.90
2022-07-29T04:25:52.194Z,99.90
2022-07-29T04:28:40.544Z,99.90
2022-07-29T04:31:27.139Z,99.90
2022-07-29T04:34:13.829Z,99.90
2022-07-29T04:37:00.554Z,99.90
2022-07-29T04:39:46.593Z,99.90
2022-07-29T04:42:32.496Z,99.90
2022-07-29T04:45:22.632Z,99.90
2022-07-29T04:48:09.022Z,99.90
2022-07-29T04:50:55.359Z,99.90
2022-07-29T04:53:41.387Z,99.90
2022-07-29T04:56:27.835Z,99.90
2022-07-29T04:59:14.003Z,99.90
2022-07-29T05:02:00.309Z,99.90
2022-07-29T05:04:46.413Z,99.90
2022-07-29T05:07:32.445Z,99.90
2022-07-29T05:10:18.476Z,99.90
2022-07-29T05:13:07.498Z,99.90
2022-07-29T05:15:53.410Z,99.90
2022-07-29T05:18:39.364Z,99.90
2022-07-29T05:21:25.350Z,99.90
2022-07-29T05:24:11.496Z,99.90
2022-07-29T05:26:57.812Z,99.90
2022-07-29T05:29:45.738Z,99.90
2022-07-29T05:32:32.810Z,99.90
2022-07-29T05:35:18.982Z,99.90
2022-07-29T05:38:05.276Z,99.90
2022-07-29T05:40:51.078Z,99.90
2022-07-29T05:43:37.112Z,99.90
2022-07-29T05:46:23.333Z,99.90
2022-07-29T05:49:09.843Z,99.90
2022-07-29T05:51:56.347Z,99.90
2022-07-29T05:54:42.425Z,99.90
2022-07-29T05:57:28.303Z,99.90
2022-07-29T06:00:14.731Z,99.90
2022-07-29T06:03:00.878Z,99.90
2022-07-29T06:05:46.915Z,99.80
2022-07-29T06:08:34.689Z,99.50
2022-07-29T06:11:20.854Z,99.00
2022-07-29T06:14:06.996Z,98.70
2022-07-29T06:16:54.035Z,98.40
2022-07-29T06:19:40.182Z,98.20
2022-07-29T06:22:26.051Z,97.50
2022-07-29T06:25:12.914Z,96.90
2022-07-29T06:27:58.854Z,96.60
2022-07-29T06:30:44.831Z,96.40
2022-07-29T06:33:31.201Z,96.30
2022-07-29T06:36:17.186Z,96.20
2022-07-29T06:39:11.620Z,95.60
2022-07-29T06:41:58.614Z,95.70
2022-07-29T06:44:44.713Z,95.60
2022-07-29T06:47:30.464Z,95.10
2022-07-29T06:50:16.481Z,95.00
2022-07-29T06:53:03.394Z,94.80
2022-07-29T06:55:49.536Z,94.70
2022-07-29T06:58:36.533Z,94.50
2022-07-29T07:01:22.372Z,94.70
2022-07-29T07:04:11.801Z,93.90
2022-07-29T07:06:58.862Z,93.80
2022-07-29T07:09:45.287Z,93.90
2022-07-29T07:12:31.263Z,94.20
2022-07-29T07:15:17.192Z,93.40
2022-07-29T07:18:04.039Z,93.50
2022-07-29T07:20:50.177Z,93.10
2022-07-29T07:23:36.152Z,92.90
2022-07-29T07:26:22.449Z,92.60
2022-07-29T07:29:08.369Z,92.20
2022-07-29T07:31:58.960Z,92.00
2022-07-29T07:34:47.544Z,92.10
2022-07-29T07:37:34.173Z,91.30
2022-07-29T07:40:20.488Z,91.40
2022-07-29T07:43:06.960Z,91.40
2022-07-29T07:45:53.847Z,91.00
2022-07-29T07:48:40.270Z,89.70
2022-07-29T07:51:26.334Z,90.20
2022-07-29T07:54:12.523Z,89.10
2022-07-29T07:56:59.143Z,89.80
2022-07-29T07:59:45.388Z,89.20
2022-07-29T08:02:31.571Z,87.90
2022-07-29T08:05:18.343Z,87.60
2022-07-29T08:08:05.191Z,86.80
2022-07-29T08:10:54.105Z,86.20
2022-07-29T08:13:41.105Z,85.60
2022-07-29T08:16:27.729Z,84.80
2022-07-29T08:19:14.010Z,84.60
2022-07-29T08:22:00.370Z,84.40
2022-07-29T08:24:56.758Z,83.90
2022-07-29T08:27:43.983Z,83.90
2022-07-29T08:30:30.590Z,83.20
2022-07-29T08:33:16.814Z,84.20
2022-07-29T08:36:03.590Z,82.40
2022-07-29T08:38:50.621Z,82.30
2022-07-29T08:41:36.870Z,81.50
2022-07-29T08:44:30.628Z,80.90
2022-07-29T08:47:17.762Z,81.80
2022-07-29T08:50:03.997Z,81.70
2022-07-29T08:52:50.817Z,80.90
2022-07-29T08:55:37.130Z,80.80
2022-07-29T08:58:24.743Z,79.80
2022-07-29T09:01:14.884Z,79.30
2022-07-29T09:04:03.997Z,79.90
2022-07-29T09:06:52.921Z,79.10
2022-07-29T09:09:40.965Z,79.60
2022-07-29T09:12:27.097Z,79.90
2022-07-29T09:15:16.045Z,80.40
2022-07-29T09:18:03.151Z,80.00
2022-07-29T09:21:13.997Z,79.80
2022-07-29T09:24:03.051Z,78.50
2022-07-29T09:26:49.074Z,79.00
2022-07-29T09:29:36.375Z,78.40
2022-07-29T09:32:22.398Z,78.40
2022-07-29T09:35:22.839Z,77.90
2022-07-29T09:38:15.338Z,77.80
2022-07-29T09:41:05.935Z,78.00
2022-07-29T09:44:00.749Z,78.00
2022-07-29T09:47:08.806Z,78.00
2022-07-29T09:49:59.232Z,78.30
2022-07-29T09:52:50.162Z,77.70
2022-07-29T09:55:50.662Z,76.90
2022-07-29T09:58:38.174Z,77.60
2022-07-29T10:01:30.377Z,77.80
2022-07-29T10:04:16.795Z,77.70
2022-07-29T10:07:05.953Z,77.80
2022-07-29T10:09:57.881Z,77.10
2022-07-29T10:12:51.062Z,75.50
2022-07-29T10:15:44.156Z,76.10
2022-07-29T10:18:31.046Z,76.50
2022-07-29T10:21:22.448Z,76.10
2022-07-29T10:24:21.993Z,76.70
2022-07-29T10:27:09.760Z,76.10
2022-07-29T10:29:55.943Z,76.00
2022-07-29T10:33:00.077Z,76.80
2022-07-29T10:36:04.770Z,74.80
2022-07-29T10:39:15.377Z,74.80
2022-07-29T10:42:33.387Z,75.90
2022-07-29T10:45:21.076Z,74.90
2022-07-29T10:48:07.994Z,75.70
2022-07-29T10:54:09.858Z,74.60
2022-07-29T10:56:56.273Z,73.60
2022-07-29T10:59:44.263Z,74.70
2022-07-29T11:02:41.293Z,74.70
2022-07-29T11:05:40.806Z,72.50
2022-07-29T11:08:28.050Z,72.90
2022-07-29T11:11:20.153Z,72.10
2022-07-29T11:14:10.402Z,69.20
2022-07-29T11:17:06.449Z,70.00
2022-07-29T11:19:52.994Z,69.60
2022-07-29T11:22:42.965Z,69.70
2022-07-29T11:25:50.389Z,67.10
2022-07-29T11:28:49.969Z,67.90
2022-07-29T11:31:44.938Z,66.50
2022-07-29T11:34:36.607Z,66.60
2022-07-29T11:37:28.117Z,66.40
2022-07-29T11:40:16.581Z,67.20
2022-07-29T11:43:07.223Z,66.50
2022-07-29T11:45:53.489Z,66.30
2022-07-29T11:48:44.667Z,66.20
2022-07-29T11:51:32.768Z,65.70
2022-07-29T11:54:27.887Z,64.50
2022-07-29T11:57:16.936Z,62.50
2022-07-29T12:00:12.550Z,62.20
2022-07-29T12:03:03.202Z,61.50
2022-07-29T12:05:51.978Z,60.70
2022-07-29T12:08:41.948Z,62.20
2022-07-29T12:11:28.091Z,62.90
2022-07-29T12:14:27.776Z,62.50
2022-07-29T12:17:34.086Z,63.20
2022-07-29T12:20:28.741Z,63.40
2022-07-29T12:23:17.394Z,64.30
2022-07-29T12:26:07.682Z,64.80
2022-07-29T12:28:58.190Z,64.80
2022-07-29T12:31:57.891Z,65.20
2022-07-29T12:34:44.658Z,64.60
2022-07-29T12:37:41.055Z,64.40
2022-07-29T12:40:28.686Z,66.00
2022-07-29T12:43:25.147Z,65.60
2022-07-29T12:46:16.069Z,64.00
2022-07-29T12:49:04.087Z,64.60
2022-07-29T12:51:50.401Z,64.40
2022-07-29T12:54:36.373Z,64.80
2022-07-29T12:57:23.272Z,64.10
2022-07-29T13:00:12.310Z,63.90
2022-07-29T13:03:00.715Z,63.40
2022-07-29T13:05:49.360Z,63.30
2022-07-29T13:08:35.976Z,62.10
2022-07-29T13:11:34.117Z,63.10
2022-07-29T13:14:47.083Z,63.90
2022-07-29T13:17:43.495Z,64.90
2022-07-29T13:20:34.538Z,65.20
2022-07-29T13:23:20.843Z,65.60
2022-07-29T13:26:12.529Z,66.20
2022-07-29T13:28:59.322Z,66.30
2022-07-29T13:31:45.426Z,66.00
2022-07-29T13:34:32.033Z,65.80
2022-07-29T13:37:20.711Z,66.20
2022-07-29T13:40:08.875Z,66.60
2022-07-29T13:42:54.662Z,67.20
2022-07-29T13:45:40.437Z,67.60
2022-07-29T13:48:26.493Z,68.00
2022-07-29T13:51:12.514Z,67.60
2022-07-29T13:53:58.873Z,67.20
2022-07-29T13:56:44.919Z,66.50
2022-07-29T13:59:33.009Z,66.50
2022-07-29T14:02:19.177Z,66.30
2022-07-29T14:05:08.702Z,66.80
2022-07-29T14:07:55.010Z,67.00
2022-07-29T14:10:40.978Z,67.50
2022-07-29T14:13:27.192Z,68.50
2022-07-29T14:16:13.358Z,68.30
2022-07-29T14:18:59.583Z,69.10
2022-07-29T14:21:45.678Z,68.40
2022-07-29T14:24:32.272Z,66.40
2022-07-29T14:27:18.756Z,67.00
2022-07-29T14:30:06.440Z,66.90
2022-07-29T14:32:52.438Z,66.70
2022-07-29T14:35:38.653Z,66.50
2022-07-29T14:38:26.839Z,68.00
2022-07-29T14:41:13.138Z,68.60
2022-07-29T14:44:01.514Z,67.20
2022-07-29T14:46:47.850Z,68.20
2022-07-29T14:49:36.129Z,67.30
2022-07-29T14:52:22.516Z,66.80
2022-07-29T14:55:19.463Z,67.50
2022-07-29T14:58:10.964Z,67.70
2022-07-29T15:00:59.532Z,68.50
2022-07-29T15:03:46.749Z,69.10
2022-07-29T15:06:33.002Z,69.40
2022-07-29T15:09:19.046Z,69.60
2022-07-29T15:12:05.891Z,70.20
2022-07-29T15:14:52.217Z,70.30
2022-07-29T15:17:38.240Z,70.70
2022-07-29T15:20:26.755Z,71.20
2022-07-29T15:23:14.038Z,72.40
2022-07-29T15:26:00.281Z,73.50
2022-07-29T15:28:46.574Z,74.60
2022-07-29T15:31:32.804Z,78.00
2022-07-29T15:34:21.249Z,78.50
2022-07-29T15:37:07.613Z,78.20
2022-07-29T15:39:57.092Z,78.50
2022-07-29T15:42:46.013Z,79.10
2022-07-29T15:46:03.796Z,79.50
2022-07-29T15:48:50.413Z,79.40
2022-07-29T15:51:36.893Z,78.10
2022-07-29T15:54:23.079Z,78.20
2022-07-29T15:57:09.157Z,78.40
2022-07-29T15:59:55.296Z,77.70
2022-07-29T16:02:41.270Z,77.50
2022-07-29T16:05:29.561Z,77.10
2022-07-29T16:08:15.709Z,77.30
2022-07-29T16:11:01.732Z,77.50
2022-07-29T16:13:48.174Z,77.50
2022-07-29T16:16:34.193Z,77.60
2022-07-29T16:19:20.017Z,77.90
2022-07-29T16:22:06.056Z,77.90
2022-07-29T16:24:51.925Z,78.50
2022-07-29T16:27:38.421Z,78.40
2022-07-29T16:30:24.635Z,78.50
2022-07-29T16:33:10.599Z,79.00
2022-07-29T16:35:56.984Z,79.20
2022-07-29T16:38:47.015Z,79.20
2022-07-29T16:41:33.693Z,79.40
2022-07-29T16:44:19.737Z,79.40
2022-07-29T16:47:10.964Z,79.50
2022-07-29T16:49:58.577Z,80.00
2022-07-29T16:52:44.886Z,80.40
2022-07-29T16:55:30.802Z,82.30
2022-07-29T16:58:16.786Z,83.30
2022-07-29T17:01:02.837Z,81.00
2022-07-29T17:04:07.260Z,77.80
2022-07-29T17:06:53.475Z,78.30
2022-07-29T17:09:40.185Z,81.20
2022-07-29T17:12:27.527Z,81.70
2022-07-29T17:15:13.755Z,82.10
2022-07-29T17:18:01.423Z,82.50
2022-07-29T17:20:58.574Z,81.90
2022-07-29T17:23:44.542Z,81.60
2022-07-29T17:26:30.818Z,81.70
2022-07-29T17:29:17.217Z,81.90
2022-07-29T17:32:03.677Z,82.20
2022-07-29T17:34:50.156Z,82.00
2022-07-29T17:37:36.843Z,82.70
2022-07-29T17:40:22.915Z,83.90
2022-07-29T17:43:09.382Z,83.60
2022-07-29T17:45:59.124Z,83.30
2022-07-29T17:48:45.619Z,83.90
2022-07-29T17:51:32.004Z,87.50
2022-07-29T17:54:18.266Z,90.70
2022-07-29T17:57:04.537Z,91.50
2022-07-29T17:59:50.362Z,93.80
2022-07-29T18:02:37.676Z,95.10
2022-07-29T18:05:23.779Z,96.30
2022-07-29T18:08:09.833Z,98.00
2022-07-29T18:10:56.470Z,98.90
2022-07-29T18:13:42.806Z,99.90
2022-07-29T18:16:29.382Z,99.90
2022-07-29T18:19:16.164Z,99.90
2022-07-29T18:22:05.104Z,99.90
2022-07-29T18:24:51.482Z,99.90
2022-07-29T18:27:38.312Z,99.90
2022-07-29T18:30:24.511Z,99.90
2022-07-29T18:33:22.804Z,99.90
2022-07-29T18:36:11.540Z,99.90
2022-07-29T18:38:57.818Z,99.90
2022-07-29T18:41:50.439Z,99.90
2022-07-29T18:44:42.860Z,99.90
2022-07-29T18:47:32.178Z,99.90
2022-07-29T18:50:19.684Z,99.90
2022-07-29T18:53:06.141Z,99.90
2022-07-29T18:55:52.266Z,99.90
2022-07-29T18:58:39.305Z,99.90
2022-07-29T19:01:25.550Z,99.90
2022-07-29T19:04:18.692Z,99.90
2022-07-29T19:07:04.880Z,99.90
2022-07-29T19:09:52.442Z,99.90
2022-07-29T19:12:39.172Z,99.90
2022-07-29T19:15:25.462Z,99.90
2022-07-29T19:18:13.286Z,99.90
2022-07-29T19:20:59.753Z,99.90
2022-07-29T19:24:06.059Z,99.90
2022-07-29T19:26:52.300Z,99.90
2022-07-29T19:29:38.318Z,99.90
2022-07-29T19:32:25.597Z,99.90
2022-07-29T19:35:32.844Z,99.90
2022-07-29T19:38:18.981Z,99.90
2022-07-29T19:41:06.209Z,99.90
2022-07-29T19:43:53.303Z,99.90
2022-07-29T19:46:40.433Z,99.90
2022-07-29T19:49:26.962Z,99.90
2022-07-29T19:52:13.099Z,99.90
2022-07-29T19:55:00.375Z,99.90
2022-07-29T19:57:49.083Z,99.90
2022-07-29T20:00:35.487Z,99.90
2022-07-29T20:03:21.908Z,99.90
2022-07-29T20:06:08.456Z,99.90
2022-07-29T20:08:58.747Z,99.90
2022-07-29T20:11:45.282Z,99.90
2022-07-29T20:14:31.458Z,99.90
2022-07-29T20:17:22.417Z,99.90
2022-07-29T20:20:10.041Z,99.90
2022-07-29T20:22:56.881Z,99.90
2022-07-29T20:25:43.207Z,99.90
2022-07-29T20:28:29.177Z,99.90
2022-07-29T20:31:16.712Z,99.90
2022-07-29T20:34:03.093Z,99.90
2022-07-29T20:36:49.118Z,99.90
2022-07-29T20:39:35.135Z,99.90
2022-07-29T20:42:21.046Z,99.90
2022-07-29T20:45:08.747Z,99.90
2022-07-29T20:47:55.125Z,99.90
2022-07-29T20:50:42.771Z,99.90
2022-07-29T20:53:29.137Z,99.90
2022-07-29T20:56:15.348Z,99.90
2022-07-29T20:59:01.597Z,99.90
2022-07-29T21:01:47.747Z,99.90
2022-07-29T21:04:34.250Z,99.90
2022-07-29T21:07:20.335Z,99.90
2022-07-29T21:10:07.064Z,99.90
2022-07-29T21:12:53.153Z,99.90
2022-07-29T21:15:39.422Z,99.90
2022-07-29T21:18:32.428Z,99.90
2022-07-29T21:21:19.220Z,99.90
2022-07-29T21:24:07.764Z,99.90
2022-07-29T21:27:21.703Z,99.90
2022-07-29T21:30:09.500Z,99.90
2022-07-29T21:32:55.691Z,99.90
2022-07-29T21:36:06.535Z,99.90
2022-07-29T21:38:48.567Z,99.90
2022-07-29T21:41:34.914Z,99.90
2022-07-29T21:44:21.845Z,99.90
2022-07-29T21:47:09.652Z,99.90
2022-07-29T21:49:55.807Z,99.90
2022-07-29T21:52:41.613Z,99.90
2022-07-29T21:55:27.721Z,99.90
2022-07-29T21:58:15.585Z,99.90
2022-07-29T22:01:01.573Z,99.90
2022-07-29T22:03:47.500Z,99.90
2022-07-29T22:06:34.599Z,99.90
2022-07-29T22:09:20.889Z,99.90
2022-07-29T22:12:07.150Z,99.90
2022-07-29T22:14:53.267Z,99.90
2022-07-29T22:17:39.564Z,99.90
2022-07-29T22:20:25.683Z,99.90
2022-07-29T22:23:11.688Z,99.90
2022-07-29T22:25:57.603Z,99.90
2022-07-29T22:28:43.759Z,99.90
2022-07-29T22:31:29.878Z,99.90
2022-07-29T22:34:16.174Z,99.90
2022-07-29T22:37:02.757Z,99.90
2022-07-29T22:39:49.077Z,99.90
2022-07-29T22:42:35.879Z,99.90
2022-07-29T22:45:26.996Z,99.90
2022-07-29T22:48:12.963Z,99.90
2022-07-29T22:51:00.346Z,99.90
2022-07-29T22:53:46.994Z,99.90
2022-07-29T22:56:34.520Z,99.90
2022-07-29T22:59:20.388Z,99.90
2022-07-29T23:02:06.321Z,99.90
2022-07-29T23:04:52.439Z,99.90
2022-07-29T23:07:38.315Z,99.90
2022-07-29T23:10:24.281Z,99.90
2022-07-29T23:13:10.273Z,99.90
2022-07-29T23:15:56.227Z,99.90
2022-07-29T23:18:42.314Z,99.90
2022-07-29T23:21:28.626Z,99.90
2022-07-29T23:24:14.796Z,99.90
2022-07-29T23:27:01.343Z,99.90
2022-07-29T23:29:47.524Z,99.90
2022-07-29T23:32:33.537Z,99.90
2022-07-29T23:35:19.982Z,99.90
2022-07-29T23:38:06.185Z,99.90
2022-07-29T23:40:52.176Z,99.90
2022-07-29T23:43:38.586Z,99.90
2022-07-29T23:46:24.636Z,99.90
2022-07-29T23:49:11.034Z,99.90
2022-07-29T23:51:57.167Z,99.90
2022-07-29T23:54:43.378Z,99.90
2022-07-29T23:57:29.629Z,99.90
